This is the latest recevied weather packets stored in our database for station/object WW6Q. If no packets are shown the sender has not sent any weather packets the latest 10 day(s).
| Time | Temp. | Humidity | Pressure | Rain* | Wind** | Luminosity | Snow |
|---|---|---|---|---|---|---|---|
| 1788366556 | 32.78° C | 57% | 1015.8 hPa | 0 mm | - | 680 W/m² | - |
| 1788366252 | 33.33° C | 55% | 1015.6 hPa | 0 mm | - | 667 W/m² | - |
| 1788365946 | 33.33° C | 60% | 1015.9 hPa | 0 mm | - | 653 W/m² | - |
| 1788365640 | 32.78° C | 61% | 1015.8 hPa | 0 mm | - | 642 W/m² | - |
| 1788365337 | 32.78° C | 60% | 1015.8 hPa | 0 mm | - | 635 W/m² | - |
| 1788365033 | 32.78° C | 63% | 1015.8 hPa | 0 mm | - | 619 W/m² | - |
| 1788364730 | 32.22° C | 59% | 1015.8 hPa | 0 mm | - | 616 W/m² | - |
| 1788364429 | 32.22° C | 59% | 1015.8 hPa | 0 mm | - | 603 W/m² | - |
| 1788364125 | 32.22° C | 59% | 1016 hPa | 0 mm | - | 595 W/m² | - |
| 1788363820 | 32.22° C | 57% | 1015.8 hPa | 0 mm | - | 583 W/m² | - |
| 1788363519 | 32.22° C | 59% | 1015.8 hPa | 0 mm | - | 571 W/m² | - |
| 1788363218 | 32.22° C | 57% | 1015.9 hPa | 0 mm | - | 565 W/m² | - |
| 1788362914 | 31.67° C | 62% | 1015.8 hPa | 0 mm | - | 536 W/m² | - |
| 1788362611 | 31.67° C | 59% | 1015.8 hPa | 0 mm | - | 537 W/m² | - |
| 1788362306 | 31.67° C | 64% | 1015.9 hPa | 0 mm | - | 517 W/m² | - |
| 1788362001 | 31.11° C | 63% | 1016 hPa | 0 mm | - | 512 W/m² | - |
| 1788361695 | 31.11° C | 62% | 1015.8 hPa | 0 mm | - | 492 W/m² | - |
| 1788361392 | 31.11° C | 65% | 1015.8 hPa | 0 mm | - | 456 W/m² | - |
| 1788361091 | 31.11° C | 62% | 1015.7 hPa | 0 mm | - | 470 W/m² | - |
| 1788360786 | 31.11° C | 63% | 1015.7 hPa | 0 mm | - | 461 W/m² | - |
| 1788360482 | 30.56° C | 65% | 1015.7 hPa | 0 mm | - | 444 W/m² | - |
| 1788360177 | 30° C | 65% | 1015.6 hPa | 0 mm | - | 442 W/m² | - |
| 1788359872 | 30.56° C | 64% | 1015.6 hPa | 0 mm | - | 424 W/m² | - |
| 1788359567 | 30.56° C | 65% | 1015.5 hPa | 0 mm | - | 374 W/m² | - |
| 1788359263 | 30.56° C | 65% | 1015.8 hPa | 0 mm | - | 391 W/m² | - |
* Rain latest hour (hover to see other rain measurements)
** Current wind speed in m/s (hover to see current wind gust speed)